• Join FlightAware (Why Join?)
  • Login
  • US Flag 
04:28AM EST


 

Airport Tracker/Info


-or-


 

Live Flight TrackerFlight Track Log ✈ N877PM ✈ 27-Apr-2014 ✈ KCID - KIND

Flight Track Log - Related Links

Times and Time Zones

All times are in EDT time to prevent confusion due to time zone crossing. See the N877PM flight status page for this flight to view local times or setup timezone preferences in your user account.

Time Position Orientation Groundspeed Altitude Reporting Facility
EDT Latitude Longitude Course Direction KTS MPH feet Rate Location/Type
08:34AM 41.8736 -91.6547 114° Southeast 156 180 4,300  Level Chicago Center
08:35AM 41.8544 -91.6006 115° Southeast 156 180 6,800 2,280 Climbing Chicago Center
08:36AM 41.8325 -91.5392 116° Southeast 177 204 9,000 2,220 Climbing Chicago Center
08:37AM 41.8103 -91.4728 114° Southeast 191 220 11,400 2,220 Climbing Chicago Center
08:38AM 41.7872 -91.4053 115° Southeast 197 227 13,600 1,920 Climbing Chicago Center
08:39AM 41.6753 -91.1090 114° Southeast  Level FlightAware Approximate
08:39AM 41.7628 -91.3331 114° Southeast 210 242 15,400  Level Chicago Center
08:40AM 41.7372 -91.2531 113° Southeast 229 264 17,100 1,500 Climbing Chicago Center
08:41AM 41.7086 -91.1719 115° Southeast 240 276 18,500 1,620 Climbing Chicago Center
08:42AM 41.6756 -91.0706 114° Southeast 247 284 20,500 1,680 Climbing Chicago Center
08:43AM 41.6467 -90.9867 115° Southeast 250 288 22,000 1,440 Climbing Chicago Center
08:44AM 41.6178 -90.9039 115° Southeast 249 287 23,500 1,320 Climbing Chicago Center
08:45AM 41.5881 -90.8169 115° Southeast 253 291 24,800 1,320 Climbing Chicago Center
08:46AM 41.5575 -90.7269 114° Southeast 262 302 26,200 1,080 Climbing Chicago Center
08:47AM 41.5244 -90.6350 116° Southeast 272 313 27,000 360 Climbing Chicago Center
08:48AM 41.4881 -90.5253 114° Southeast 311 358 27,000  Level Chicago Center
08:49AM 41.4458 -90.4067 115° Southeast 349 402 27,000  Level Chicago Center
08:50AM 41.4033 -90.2794 114° Southeast 372 428 27,000  Level Chicago Center
08:51AM 41.3592 -90.1519 115° Southeast 375 432 27,000  Level Chicago Center
08:52AM 41.3128 -90.0244 116° Southeast 380 437 27,000  Level Chicago Center
08:53AM 41.2586 -89.8683 115° Southeast 382 440 27,000  Level Chicago Center
08:54AM 41.2131 -89.7381 115° Southeast 383 441 27,000  Level Chicago Center
08:55AM 41.1669 -89.6094 115° Southeast 383 441 27,000  Level Chicago Center
08:56AM 41.1192 -89.4833 117° Southeast 383 441 27,000  Level Chicago Center
08:57AM 41.0678 -89.3592 119° Southeast 383 441 27,000  Level Chicago Center
08:58AM 41.0183 -89.2331 117° Southeast 383 441 27,000  Level Chicago Center
08:59AM 40.9683 -89.1075 118° Southeast 383 441 27,000  Level Chicago Center
09:00AM 40.9169 -88.9831 119° Southeast 383 441 27,000  Level Chicago Center
09:01AM 40.8683 -88.8586 117° Southeast 383 441 27,000  Level Chicago Center
09:02AM 40.8175 -88.7261 117° Southeast 383 441 27,000  Level Chicago Center
09:03AM 40.7761 -88.5997 113° Southeast 382 440 27,000 -60 Level Chicago Center
09:04AM 40.7322 -88.4736 115° Southeast 381 438 26,900 -720 Descending Chicago Center
09:05AM 40.6861 -88.3417 115° Southeast 396 456 25,600 -1,440 Descending Chicago Center
09:06AM 40.6400 -88.2094 115° Southeast 402 463 24,000 -1,320 Descending Chicago Center
09:07AM 40.5872 -88.0547 114° Southeast 392 451 23,000 -540 Descending Chicago Center
09:08AM 40.5425 -87.9286 115° Southeast 388 447 23,000  Level Chicago Center
09:09AM 40.4986 -87.8044 115° Southeast 382 440 23,000 -240 Level Chicago Center
09:11AM 40.4536 -87.6811 116° Southeast 381 438 22,600 -960 Descending Chicago Center
09:12AM 40.4092 -87.5497 114° Southeast 388 447 21,100 -1,740 Descending Chicago Center
09:13AM 40.3575 -87.4072 115° Southeast 400 460 19,100 -1,860 Descending Chicago Center
09:14AM 40.3083 -87.2750 116° Southeast 402 463 17,400 -1,800 Descending Chicago Center
09:15AM 40.2622 -87.1456 115° Southeast 396 456 15,500 -1,740 Descending Chicago Center
09:16AM 40.2175 -87.0242 116° Southeast 373 429 13,900 -1,260 Descending Chicago Center
09:17AM 40.1753 -86.9081 115° Southeast 357 411 13,000 -480 Descending Chicago Center
09:18AM 40.1236 -86.8153 126° Southeast 314 361 13,000 -240 Level Chicago Center
09:18AM 40.0883 -86.7647 132° Southeast 312 359 12,700 -1,200 Descending Indianapolis Center
09:19AM 40.0303 -86.6797 132° Southeast 310 357 11,100 -1,620 Descending Indianapolis Center
09:20AM 39.9631 -86.6269 149° Southeast 289 333 9,500 -1,800 Descending Indianapolis Center
09:21AM 39.8839 -86.5692 151° Southeast 278 320 7,500 -1,260 Descending Indianapolis Center
09:22AM 39.8217 -86.5281 153° Southeast 258 297 7,000 -1,020 Descending Indianapolis Center
09:23AM 39.7628 -86.4853 151° Southeast 251 289 5,500 -1,860 Descending Indianapolis Center
09:24AM 39.7094 -86.4439 149° Southeast 236 272 3,200 -1,740 Descending Indianapolis Center
09:25AM 39.6839 -86.3981 126° Southeast 180 207 2,000 -840 Descending Indianapolis Center
09:26AM 39.6808 -86.3592 96° East 136 157 1,500 -540 Descending Indianapolis Center
09:27AM 39.7000 -86.3297 50° Northeast 103 119 1,000 -360 Descending Indianapolis Center
09:28AM 39.7164 -86.3086 45° Northeast 99 114 800 -240 Descending Indianapolis Center
09:30AM 39.7173 -86.2947 142° Southeast  Level Estimated